createdAt,value
2022-11-05T00:00:02.849Z,7.17
2022-11-05T00:04:26.745Z,8.70
2022-11-05T00:08:44.271Z,10.90
2022-11-05T00:13:04.080Z,8.67
2022-11-05T00:17:05.249Z,11.27
2022-11-05T00:21:08.464Z,12.13
2022-11-05T00:25:19.028Z,10.17
2022-11-05T00:29:20.236Z,9.30
2022-11-05T00:33:21.434Z,8.93
2022-11-05T00:37:22.516Z,7.33
2022-11-05T00:41:23.736Z,9.83
2022-11-05T00:45:25.096Z,8.23
2022-11-05T00:49:29.076Z,7.60
2022-11-05T00:53:30.364Z,8.97
2022-11-05T00:57:31.591Z,11.60
2022-11-05T01:01:32.905Z,9.70
2022-11-05T01:05:40.274Z,9.80
2022-11-05T01:09:41.467Z,10.40
2022-11-05T01:13:42.662Z,9.83
2022-11-05T01:17:43.852Z,9.70
2022-11-05T01:21:45.050Z,8.40
2022-11-05T01:25:46.247Z,7.70
2022-11-05T01:29:47.345Z,9.13
2022-11-05T01:33:48.836Z,8.37
2022-11-05T01:37:50.324Z,7.97
2022-11-05T01:41:51.420Z,8.97
2022-11-05T01:45:55.708Z,9.47
2022-11-05T01:49:59.806Z,8.83
2022-11-05T01:54:04.829Z,10.57
2022-11-05T01:58:08.270Z,8.70
2022-11-05T02:02:10.141Z,8.37
2022-11-05T02:06:14.172Z,7.90
2022-11-05T02:10:17.456Z,9.53
2022-11-05T02:14:19.696Z,9.40
2022-11-05T02:18:40.329Z,10.30
2022-11-05T02:22:57.654Z,9.07
2022-11-05T02:27:20.854Z,8.10
2022-11-05T02:31:41.042Z,8.20
2022-11-05T02:36:02.600Z,7.33
2022-11-05T02:40:22.821Z,9.07
2022-11-05T02:44:33.872Z,8.80
2022-11-05T02:48:47.370Z,10.10
2022-11-05T02:53:11.413Z,9.70
2022-11-05T02:57:12.855Z,8.90
2022-11-05T03:01:14.159Z,9.57
2022-11-05T03:05:15.414Z,15.73
2022-11-05T03:09:47.234Z,10.30
2022-11-05T03:14:07.503Z,9.40
2022-11-05T03:18:24.077Z,8.50
2022-11-05T03:22:31.995Z,11.20
2022-11-05T03:26:36.886Z,12.53
2022-11-05T03:30:40.263Z,10.57
2022-11-05T03:34:44.943Z,9.63
2022-11-05T03:38:49.806Z,9.77
2022-11-05T03:42:54.851Z,11.57
2022-11-05T03:46:59.743Z,11.57
2022-11-05T03:51:19.993Z,11.30
2022-11-05T03:55:27.958Z,12.77
2022-11-05T03:59:30.719Z,15.00
2022-11-05T04:03:33.771Z,13.43
2022-11-05T04:07:53.515Z,14.87
2022-11-05T04:12:13.093Z,17.73
2022-11-05T04:16:32.734Z,13.67
2022-11-05T04:20:52.519Z,15.20
2022-11-05T04:24:53.568Z,14.77
2022-11-05T04:29:13.410Z,15.10
2022-11-05T04:33:16.382Z,18.20
2022-11-05T04:37:17.450Z,17.63
2022-11-05T04:41:18.509Z,17.67
2022-11-05T04:45:19.718Z,14.20
2022-11-05T04:49:20.773Z,17.57
2022-11-05T04:53:21.946Z,20.27
2022-11-05T04:57:22.991Z,22.47
2022-11-05T05:01:24.747Z,18.63
2022-11-05T05:05:25.886Z,19.27
2022-11-05T05:09:27.068Z,23.17
2022-11-05T05:13:28.234Z,23.10
2022-11-05T05:17:29.316Z,21.33
2022-11-05T05:21:39.835Z,21.23
2022-11-05T05:25:40.993Z,26.03
2022-11-05T05:29:42.075Z,22.90
2022-11-05T05:33:43.135Z,22.93
2022-11-05T05:37:44.208Z,22.90
2022-11-05T05:41:45.277Z,23.27
2022-11-05T05:45:46.343Z,24.73
2022-11-05T05:49:47.502Z,26.17
2022-11-05T05:53:49.263Z,28.30
2022-11-05T05:57:50.340Z,24.03
2022-11-05T06:01:51.462Z,21.23
2022-11-05T06:05:52.672Z,20.60
2022-11-05T06:09:53.751Z,20.60
2022-11-05T06:13:54.805Z,21.50
2022-11-05T06:17:55.882Z,19.90
2022-11-05T06:21:56.947Z,17.50
2022-11-05T06:26:02.622Z,16.60
2022-11-05T06:30:04.432Z,16.13
2022-11-05T06:34:05.486Z,16.10
2022-11-05T06:38:06.542Z,16.27
2022-11-05T06:42:22.844Z,18.77
2022-11-05T06:46:11.027Z,19.73
2022-11-05T06:50:12.182Z,15.30
2022-11-05T06:54:13.362Z,14.20
2022-11-05T06:58:15.228Z,16.53
2022-11-05T07:02:17.558Z,15.93
2022-11-05T07:06:18.706Z,14.43
2022-11-05T07:10:19.979Z,14.10
2022-11-05T07:14:21.378Z,19.30
2022-11-05T07:18:23.037Z,15.83
2022-11-05T07:22:24.122Z,14.90
2022-11-05T07:26:30.478Z,16.57
2022-11-05T07:30:30.550Z,16.07
2022-11-05T07:34:31.826Z,18.70
2022-11-05T07:38:32.997Z,17.57
2022-11-05T07:42:34.551Z,19.73
2022-11-05T07:46:35.628Z,16.97
2022-11-05T07:50:36.987Z,17.60
2022-11-05T07:54:38.050Z,17.37
2022-11-05T07:58:39.210Z,19.33
2022-11-05T08:02:42.009Z,16.87
2022-11-05T08:06:43.633Z,17.20
2022-11-05T08:10:45.535Z,16.93
2022-11-05T08:14:46.688Z,14.43
2022-11-05T08:18:47.975Z,18.53
2022-11-05T08:22:49.150Z,18.60
2022-11-05T08:26:50.298Z,19.03
2022-11-05T08:30:53.260Z,16.87
2022-11-05T08:34:54.331Z,18.87
2022-11-05T08:38:55.514Z,16.47
2022-11-05T08:42:57.469Z,17.03
2022-11-05T08:46:58.641Z,17.07
2022-11-05T08:51:00.571Z,17.57
2022-11-05T08:55:01.777Z,20.40
2022-11-05T08:59:03.114Z,16.07
2022-11-05T09:03:06.228Z,16.90
2022-11-05T09:07:07.886Z,19.10
2022-11-05T09:11:12.573Z,42.37
2022-11-05T09:15:38.523Z,17.87
2022-11-05T09:19:52.896Z,16.33
2022-11-05T09:23:54.130Z,16.00
2022-11-05T09:28:07.635Z,16.47
2022-11-05T09:32:09.214Z,15.23
2022-11-05T09:36:10.271Z,16.43
2022-11-05T09:40:17.451Z,15.70
2022-11-05T09:44:38.787Z,20.20
2022-11-05T09:48:41.787Z,15.87
2022-11-05T09:52:43.067Z,15.90
2022-11-05T09:56:45.324Z,17.93
2022-11-05T10:00:48.656Z,20.43
2022-11-05T10:04:53.741Z,16.73
2022-11-05T10:09:04.887Z,15.17
2022-11-05T10:13:24.633Z,17.17
2022-11-05T10:17:27.978Z,13.27
2022-11-05T10:21:59.694Z,14.73
2022-11-05T10:25:36.029Z,15.43
2022-11-05T10:29:37.312Z,15.00
2022-11-05T10:33:48.033Z,17.00
2022-11-05T10:37:50.589Z,11.53
2022-11-05T10:42:07.100Z,14.77
2022-11-05T10:46:14.960Z,12.80
2022-11-05T10:50:19.131Z,17.00
2022-11-05T10:54:23.904Z,14.10
2022-11-05T10:58:30.827Z,9.60
2022-11-05T11:02:34.750Z,9.67
2022-11-05T11:06:38.741Z,14.97
2022-11-05T11:10:42.996Z,10.27
2022-11-05T11:14:57.106Z,11.67
2022-11-05T11:19:00.373Z,12.90
2022-11-05T11:23:11.848Z,7.87
2022-11-05T11:27:16.874Z,10.83
2022-11-05T11:31:26.492Z,9.80
2022-11-05T11:35:28.765Z,14.23
2022-11-05T11:39:30.535Z,10.00
2022-11-05T11:43:35.141Z,13.70
2022-11-05T11:47:40.078Z,16.10
2022-11-05T11:51:49.794Z,16.60
2022-11-05T11:55:57.923Z,10.40
2022-11-05T12:00:11.676Z,7.37
2022-11-05T12:04:16.018Z,7.53
2022-11-05T12:08:41.596Z,7.40
2022-11-05T12:12:51.703Z,9.27
2022-11-05T12:17:28.849Z,12.17
2022-11-05T12:21:52.889Z,9.63
2022-11-05T12:26:05.091Z,8.83
2022-11-05T12:30:18.257Z,8.07
2022-11-05T12:34:43.385Z,7.47
2022-11-05T12:39:06.277Z,8.50
2022-11-05T12:43:14.802Z,10.70
2022-11-05T12:47:19.931Z,7.40
2022-11-05T12:51:31.043Z,7.33
2022-11-05T12:55:36.051Z,7.77
2022-11-05T12:59:47.073Z,6.10
2022-11-05T13:04:05.619Z,6.80
2022-11-05T13:08:10.781Z,6.30
2022-11-05T13:12:17.761Z,9.60
2022-11-05T13:16:44.034Z,10.40
2022-11-05T13:20:48.943Z,11.20
2022-11-05T13:24:56.528Z,8.30
2022-11-05T13:29:07.766Z,6.73
2022-11-05T13:33:15.985Z,8.10
2022-11-05T13:37:39.492Z,19.93
2022-11-05T13:41:59.432Z,9.97
2022-11-05T13:46:07.451Z,6.90
2022-11-05T13:50:29.119Z,9.53
2022-11-05T13:54:49.110Z,8.80
2022-11-05T13:59:18.430Z,6.10
2022-11-05T14:03:20.577Z,7.20
2022-11-05T14:07:31.567Z,7.07
2022-11-05T14:11:35.332Z,5.50
2022-11-05T14:15:36.522Z,9.10
2022-11-05T14:20:02.473Z,8.57
2022-11-05T14:24:26.565Z,8.83
2022-11-05T14:28:37.028Z,5.33
2022-11-05T14:32:44.862Z,5.23
2022-11-05T14:37:06.725Z,5.17
2022-11-05T14:41:09.298Z,7.67
2022-11-05T14:45:29.579Z,5.10
2022-11-05T14:49:37.539Z,5.70
2022-11-05T14:53:40.022Z,6.20
2022-11-05T14:57:46.424Z,5.87
2022-11-05T15:01:51.361Z,6.07
2022-11-05T15:06:05.271Z,4.40
2022-11-05T15:10:10.956Z,3.37
2022-11-05T15:14:33.157Z,14.40
2022-11-05T15:18:38.208Z,4.40
2022-11-05T15:22:43.130Z,3.47
2022-11-05T15:27:02.941Z,4.57
2022-11-05T15:31:17.187Z,4.47
2022-11-05T15:35:28.036Z,3.90
2022-11-05T15:39:32.983Z,6.57
2022-11-05T15:43:34.056Z,4.47
2022-11-05T15:47:35.244Z,4.80
2022-11-05T15:51:36.303Z,5.63
2022-11-05T15:55:41.287Z,6.57
2022-11-05T15:59:46.184Z,4.83
2022-11-05T16:03:47.747Z,7.60
2022-11-05T16:07:49.412Z,9.43
2022-11-05T16:12:15.765Z,9.23
2022-11-05T16:16:20.701Z,4.83
2022-11-05T16:20:28.756Z,4.70
2022-11-05T16:24:30.000Z,5.63
2022-11-05T16:28:31.157Z,14.20
2022-11-05T16:32:32.242Z,14.50
2022-11-05T16:36:33.501Z,5.97
2022-11-05T16:40:34.598Z,5.80
2022-11-05T16:44:35.853Z,6.03
2022-11-05T16:48:37.021Z,6.97
2022-11-05T16:52:38.414Z,5.53
2022-11-05T16:56:41.556Z,5.47
2022-11-05T17:00:42.780Z,4.70
2022-11-05T17:04:44.099Z,5.73
2022-11-05T17:08:46.384Z,6.40
2022-11-05T17:12:48.368Z,7.43
2022-11-05T17:16:49.583Z,10.83
2022-11-05T17:20:53.986Z,18.53
2022-11-05T17:24:57.737Z,13.57
2022-11-05T17:28:58.959Z,15.03
2022-11-05T17:33:00.476Z,15.10
2022-11-05T17:37:01.746Z,14.13
2022-11-05T17:41:11.770Z,17.33
2022-11-05T17:45:13.450Z,15.57
2022-11-05T17:49:14.603Z,13.50
2022-11-05T17:53:17.739Z,15.97
2022-11-05T17:57:19.020Z,14.80
2022-11-05T18:01:29.799Z,14.33
2022-11-05T18:05:31.244Z,13.93
2022-11-05T18:09:33.294Z,15.93
2022-11-05T18:13:34.449Z,16.87
2022-11-05T18:17:36.060Z,16.63
2022-11-05T18:21:37.241Z,16.00
2022-11-05T18:25:41.157Z,15.00
2022-11-05T18:29:42.384Z,15.33
2022-11-05T18:33:43.557Z,19.03
2022-11-05T18:37:44.981Z,16.40
2022-11-05T18:41:46.167Z,14.43
2022-11-05T18:45:54.053Z,15.50
2022-11-05T18:49:55.296Z,20.70
2022-11-05T18:53:56.461Z,16.83
2022-11-05T18:57:57.546Z,16.50
2022-11-05T19:01:58.843Z,12.73
2022-11-05T19:06:04.120Z,15.97
2022-11-05T19:10:06.783Z,15.00
2022-11-05T19:14:08.203Z,13.67
2022-11-05T19:18:10.754Z,11.80
2022-11-05T19:22:12.171Z,19.03
2022-11-05T19:26:17.286Z,11.20
2022-11-05T19:30:18.733Z,12.83
2022-11-05T19:34:19.938Z,15.37
2022-11-05T19:38:22.146Z,13.37
2022-11-05T19:42:23.501Z,12.43
2022-11-05T19:46:25.139Z,18.27
2022-11-05T19:50:26.283Z,17.90
2022-11-05T19:54:27.517Z,13.67
2022-11-05T19:58:28.729Z,12.43
2022-11-05T20:02:30.445Z,12.60
2022-11-05T20:06:37.197Z,14.63
2022-11-05T20:10:38.379Z,12.50
2022-11-05T20:14:40.808Z,13.17
2022-11-05T20:18:41.890Z,18.60
2022-11-05T20:22:43.281Z,13.07
2022-11-05T20:26:44.358Z,13.43
2022-11-05T20:30:45.479Z,12.57
2022-11-05T20:34:46.688Z,14.70
2022-11-05T20:38:57.358Z,12.47
2022-11-05T20:42:58.548Z,11.83
2022-11-05T20:46:59.710Z,12.70
2022-11-05T20:51:07.370Z,11.17
2022-11-05T20:55:09.034Z,10.83
2022-11-05T20:59:10.522Z,9.47
2022-11-05T21:03:11.822Z,15.30
2022-11-05T21:07:13.020Z,10.00
2022-11-05T21:11:14.405Z,11.73
2022-11-05T21:15:17.640Z,11.30
2022-11-05T21:19:19.136Z,9.60
2022-11-05T21:23:20.456Z,9.33
2022-11-05T21:27:22.636Z,10.50
2022-11-05T21:31:23.925Z,10.53
2022-11-05T21:35:25.134Z,31.43
2022-11-05T21:39:27.125Z,10.00
2022-11-05T21:43:28.413Z,9.60
2022-11-05T21:47:29.841Z,9.40
2022-11-05T21:51:50.161Z,11.10
2022-11-05T21:56:09.928Z,11.40
2022-11-05T22:00:12.154Z,14.87
2022-11-05T22:04:13.348Z,15.40
2022-11-05T22:08:14.788Z,11.80
2022-11-05T22:12:16.328Z,16.03
2022-11-05T22:16:17.874Z,11.60
2022-11-05T22:20:19.350Z,13.10
2022-11-05T22:24:21.006Z,12.13
2022-11-05T22:28:22.171Z,14.63
2022-11-05T22:32:23.278Z,13.37
2022-11-05T22:36:24.886Z,13.10
2022-11-05T22:40:26.093Z,10.90
2022-11-05T22:44:28.092Z,10.10
2022-11-05T22:48:29.180Z,9.23
2022-11-05T22:52:30.473Z,8.73
2022-11-05T22:56:34.691Z,8.77
2022-11-05T23:00:37.584Z,7.67
2022-11-05T23:04:39.146Z,8.17
2022-11-05T23:08:58.961Z,9.57
2022-11-05T23:13:00.196Z,11.40
2022-11-05T23:17:20.353Z,10.77
2022-11-05T23:21:40.081Z,14.70
2022-11-05T23:25:41.794Z,9.67
2022-11-05T23:29:43.007Z,10.00
2022-11-05T23:33:44.229Z,10.00
2022-11-05T23:38:03.945Z,10.43
2022-11-05T23:42:23.597Z,8.70
2022-11-05T23:46:43.523Z,10.30
2022-11-05T23:50:51.454Z,8.23
2022-11-05T23:54:52.635Z,12.57
2022-11-05T23:58:53.741Z,7.90
